Time;durP1;ratioP1;P1;durP2;ratioP2;P2;SDS_P1;SDS_P2;PMS_P1;PMS_P2;Temp;Humidity;BMP_temperature;BMP_pressure;BME280_temperature;BME280_humidity;BME280_pressure;Samples;Min_cycle;Max_cycle;Signal;HPM_P1;HPM_P2
2022/09/10 00:01:42;;;;;;;16.52;14.95;;;16.50;99.90;;;;;;4985235;28;20065;-77
2022/09/10 00:04:14;;;;;;;17.95;16.25;;;16.50;99.90;;;;;;4982224;28;20042;-77
2022/09/10 00:06:40;;;;;;;18.45;16.83;;;16.50;99.90;;;;;;4999421;28;20129;-77
2022/09/10 00:09:07;;;;;;;17.80;16.15;;;16.50;99.90;;;;;;4984813;28;20045;-77
2022/09/10 00:11:33;;;;;;;19.00;17.23;;;16.50;99.90;;;;;;4983422;28;20042;-77
2022/09/10 00:14:00;;;;;;;16.60;15.23;;;16.50;99.90;;;;;;4994401;28;20050;-77
2022/09/10 00:16:26;;;;;;;16.98;15.57;;;16.50;99.90;;;;;;4981235;28;20461;-77
2022/09/10 00:18:52;;;;;;;17.52;16.08;;;16.50;99.90;;;;;;4985862;28;20049;-77
2022/09/10 00:21:20;;;;;;;17.83;16.33;;;16.50;99.90;;;;;;4983322;28;20552;-77
2022/09/10 00:23:46;;;;;;;18.20;16.70;;;16.50;99.90;;;;;;4996976;28;20057;-77
2022/09/10 00:26:27;;;;;;;18.67;17.10;;;16.50;99.90;;;;;;4983612;28;20046;-77
2022/09/10 00:28:55;;;;;;;17.98;16.52;;;16.50;99.90;;;;;;4982693;28;20097;-77
2022/09/10 00:31:22;;;;;;;17.77;16.05;;;16.50;99.90;;;;;;4979503;28;20105;-75
2022/09/10 00:33:49;;;;;;;18.05;16.55;;;16.50;99.90;;;;;;4982804;28;20046;-77
2022/09/10 00:36:20;;;;;;;18.83;17.17;;;16.50;99.90;;;;;;4979588;28;20512;-77
2022/09/10 00:38:46;;;;;;;19.73;17.92;;;16.40;99.90;;;;;;4967327;28;20595;-77
2022/09/10 00:41:13;;;;;;;17.67;16.17;;;16.50;99.90;;;;;;4996876;28;20048;-77
2022/09/10 00:44:01;;;;;;;18.90;17.40;;;16.50;99.90;;;;;;4984251;28;20572;-77
2022/09/10 00:46:36;;;;;;;20.15;18.23;;;16.40;99.90;;;;;;4962426;28;20050;-77
2022/09/10 00:49:09;;;;;;;18.27;16.67;;;16.40;99.90;;;;;;4983493;28;20042;-77
2022/09/10 00:51:36;;;;;;;17.30;15.80;;;16.40;99.90;;;;;;4984916;28;20573;-77
2022/09/10 00:54:04;;;;;;;19.52;17.73;;;16.40;99.90;;;;;;4978740;28;20050;-77
2022/09/10 00:56:31;;;;;;;17.67;16.08;;;16.40;99.90;;;;;;4997598;28;20144;-77
2022/09/10 00:58:57;;;;;;;17.20;15.80;;;16.40;99.90;;;;;;4982419;28;20128;-77
2022/09/10 01:01:23;;;;;;;18.92;17.30;;;16.40;99.90;;;;;;4965832;28;20514;-77
2022/09/10 01:03:49;;;;;;;18.50;16.80;;;16.40;99.90;;;;;;4967004;28;20386;-77
2022/09/10 01:06:16;;;;;;;17.48;15.93;;;16.40;99.90;;;;;;4997868;28;20084;-77
2022/09/10 01:08:41;;;;;;;17.63;16.02;;;16.40;99.90;;;;;;4985050;28;20536;-76
2022/09/10 01:11:26;;;;;;;17.20;15.60;;;16.40;99.90;;;;;;4965697;28;20054;-77
2022/09/10 01:14:14;;;;;;;17.48;15.85;;;16.50;99.90;;;;;;4982642;28;20085;-77
2022/09/10 01:16:53;;;;;;;16.60;15.07;;;16.40;99.90;;;;;;4981994;28;20126;-77
2022/09/10 01:19:31;;;;;;;17.33;15.82;;;16.40;99.90;;;;;;4965684;28;20693;-79
2022/09/10 01:22:28;;;;;;;16.90;15.30;;;16.40;99.90;;;;;;4984103;28;20069;-77
2022/09/10 01:25:05;;;;;;;18.17;16.58;;;16.40;99.90;;;;;;4961591;28;20055;-77
2022/09/10 01:27:57;;;;;;;17.95;16.15;;;16.40;99.90;;;;;;4993305;28;20046;-77
2022/09/10 01:30:33;;;;;;;18.30;16.70;;;16.40;99.90;;;;;;4977766;28;20062;-77
2022/09/10 01:33:08;;;;;;;17.05;15.40;;;16.40;99.90;;;;;;4966490;28;20058;-77
2022/09/10 01:35:39;;;;;;;16.65;15.05;;;16.40;99.90;;;;;;4998960;28;20499;-77
2022/09/10 01:38:19;;;;;;;16.42;14.98;;;16.40;99.90;;;;;;4964634;28;20398;-77
2022/09/10 01:40:46;;;;;;;17.88;16.27;;;16.40;99.90;;;;;;4987090;28;20053;-77
2022/09/10 01:43:12;;;;;;;17.15;15.45;;;16.40;99.90;;;;;;4989876;28;20054;-77
2022/09/10 01:45:57;;;;;;;17.30;15.63;;;16.40;99.90;;;;;;5002348;28;20452;-77
2022/09/10 01:48:34;;;;;;;15.65;14.13;;;16.40;99.90;;;;;;4983732;28;20049;-77
2022/09/10 01:51:10;;;;;;;17.27;15.63;;;16.40;99.90;;;;;;4965028;28;20053;-77
2022/09/10 01:53:56;;;;;;;17.38;15.65;;;16.40;99.90;;;;;;4989778;28;20039;-77
2022/09/10 01:56:34;;;;;;;17.02;15.38;;;16.40;99.90;;;;;;4986776;28;20046;-77
2022/09/10 01:59:10;;;;;;;17.38;15.63;;;16.40;99.90;;;;;;4980774;28;20046;-77
2022/09/10 02:01:49;;;;;;;17.42;15.63;;;16.40;99.90;;;;;;4984950;28;20096;-77
2022/09/10 02:04:18;;;;;;;16.23;14.65;;;16.40;99.90;;;;;;4981934;28;20190;-77
2022/09/10 02:06:48;;;;;;;15.55;14.13;;;16.40;99.90;;;;;;4982344;28;20054;-77
2022/09/10 02:09:17;;;;;;;16.55;14.80;;;16.40;99.90;;;;;;4984294;28;20042;-77
2022/09/10 02:11:49;;;;;;;17.23;15.57;;;16.40;99.90;;;;;;4987102;28;20350;-77
2022/09/10 02:14:15;;;;;;;15.07;13.63;;;16.40;99.90;;;;;;4964571;28;20042;-77
2022/09/10 02:16:48;;;;;;;17.35;15.60;;;16.40;99.90;;;;;;5003224;28;20168;-77
2022/09/10 02:19:14;;;;;;;17.67;14.35;;;16.50;99.90;;;;;;4986274;28;20732;-76
2022/09/10 02:21:40;;;;;;;16.42;14.70;;;16.40;99.90;;;;;;4972155;28;20042;-77
2022/09/10 02:24:09;;;;;;;15.95;14.32;;;16.40;99.90;;;;;;4968342;28;20125;-77
2022/09/10 02:26:39;;;;;;;16.63;14.98;;;16.40;99.90;;;;;;4996815;28;20058;-77
2022/09/10 02:29:06;;;;;;;15.90;14.30;;;16.40;99.90;;;;;;4962637;28;20050;-77
2022/09/10 02:31:32;;;;;;;15.93;14.43;;;16.40;99.90;;;;;;5002530;28;20069;-77
2022/09/10 02:33:57;;;;;;;16.88;14.52;;;16.40;99.90;;;;;;4983148;28;20062;-77
2022/09/10 02:36:24;;;;;;;16.58;14.75;;;16.40;99.90;;;;;;4967837;28;20340;-77
2022/09/10 02:38:57;;;;;;;17.17;15.10;;;16.40;99.90;;;;;;4989038;28;20060;-77
2022/09/10 02:41:24;;;;;;;20.77;14.70;;;16.40;99.90;;;;;;4986746;28;20061;-77
2022/09/10 02:43:53;;;;;;;19.58;15.32;;;16.40;99.90;;;;;;4984000;28;20089;-77
2022/09/10 02:46:19;;;;;;;16.38;13.68;;;16.40;99.90;;;;;;4987090;28;20046;-77
2022/09/10 02:48:44;;;;;;;16.85;15.13;;;16.40;99.90;;;;;;5001727;28;20050;-77
2022/09/10 02:51:11;;;;;;;19.65;15.52;;;16.50;99.90;;;;;;4986299;28;20520;-77
2022/09/10 02:53:37;;;;;;;16.83;14.32;;;16.50;99.90;;;;;;4982778;28;20038;-77
2022/09/10 02:56:04;;;;;;;16.20;14.52;;;16.40;99.90;;;;;;4986130;28;20046;-77
2022/09/10 02:58:30;;;;;;;18.17;14.30;;;16.40;99.90;;;;;;4985105;28;20051;-77
2022/09/10 03:01:08;;;;;;;17.83;14.73;;;16.40;99.90;;;;;;4987744;28;20046;-77
2022/09/10 03:03:35;;;;;;;15.68;14.18;;;16.40;99.90;;;;;;4971305;28;20104;-77
2022/09/10 03:06:02;;;;;;;15.18;13.48;;;16.40;99.90;;;;;;4986383;28;20367;-77
2022/09/10 03:08:28;;;;;;;15.82;14.07;;;16.40;99.90;;;;;;5004385;28;20663;-77
2022/09/10 03:10:54;;;;;;;18.10;15.27;;;16.40;99.90;;;;;;4982398;28;20045;-77
2022/09/10 03:13:20;;;;;;;18.20;14.93;;;16.40;99.90;;;;;;4983350;28;20046;-77
2022/09/10 03:15:46;;;;;;;16.10;14.02;;;16.40;99.90;;;;;;5000122;28;20051;-77
2022/09/10 03:18:11;;;;;;;20.58;15.00;;;16.40;99.90;;;;;;4984921;28;20501;-78
2022/09/10 03:20:38;;;;;;;17.58;15.75;;;16.40;99.90;;;;;;4969383;28;20039;-77
2022/09/10 03:23:03;;;;;;;16.70;13.70;;;16.50;99.90;;;;;;4983887;28;20057;-77
2022/09/10 03:25:29;;;;;;;19.20;15.35;;;16.40;99.90;;;;;;4971541;28;20046;-76
2022/09/10 03:27:54;;;;;;;17.70;14.10;;;16.40;99.90;;;;;;4982983;28;20050;-77
2022/09/10 03:30:20;;;;;;;16.42;14.73;;;16.40;99.90;;;;;;4985782;28;20061;-77
2022/09/10 03:32:47;;;;;;;17.05;14.48;;;16.40;99.90;;;;;;4989667;28;20128;-77
2022/09/10 03:35:14;;;;;;;17.65;15.20;;;16.50;99.90;;;;;;4985613;28;20173;-76
2022/09/10 03:37:40;;;;;;;20.25;16.63;;;16.40;99.90;;;;;;4982964;28;20422;-77
2022/09/10 03:40:06;;;;;;;16.98;15.15;;;16.40;99.90;;;;;;4982731;28;20041;-77
2022/09/10 03:42:32;;;;;;;18.42;15.68;;;16.40;99.90;;;;;;5007433;28;20046;-77
2022/09/10 03:44:58;;;;;;;19.20;16.58;;;16.40;99.90;;;;;;4986379;28;20038;-77
2022/09/10 03:47:24;;;;;;;19.33;16.83;;;16.40;99.90;;;;;;4966541;28;20494;-77
2022/09/10 03:49:49;;;;;;;18.98;15.77;;;16.40;99.90;;;;;;4968526;28;20496;-77
2022/09/10 03:52:16;;;;;;;18.45;16.10;;;16.40;99.90;;;;;;4964308;28;20050;-77
2022/09/10 03:54:41;;;;;;;19.17;15.55;;;16.40;99.90;;;;;;4982308;28;20049;-77
2022/09/10 03:57:07;;;;;;;17.83;15.45;;;16.40;99.90;;;;;;4983433;28;20046;-77
2022/09/10 03:59:34;;;;;;;18.00;15.23;;;16.40;99.90;;;;;;4997508;28;20926;-76
2022/09/10 04:02:00;;;;;;;17.30;15.53;;;16.40;99.90;;;;;;4967387;28;20059;-77
2022/09/10 04:04:26;;;;;;;19.30;15.13;;;16.40;99.90;;;;;;4968168;28;20317;-77
2022/09/10 04:06:53;;;;;;;17.52;15.63;;;16.40;99.90;;;;;;4964687;28;20046;-77
2022/09/10 04:09:19;;;;;;;19.95;16.00;;;16.40;99.90;;;;;;4986354;28;20042;-77
2022/09/10 04:11:45;;;;;;;18.38;16.35;;;16.40;99.90;;;;;;4983785;28;20045;-77
2022/09/10 04:14:11;;;;;;;19.85;16.50;;;16.40;99.90;;;;;;4967258;28;20051;-78
2022/09/10 04:16:36;;;;;;;18.60;16.35;;;16.40;99.90;;;;;;4966979;28;20045;-77
2022/09/10 04:19:02;;;;;;;19.40;17.33;;;16.40;99.90;;;;;;4981063;28;20038;-77
2022/09/10 04:21:28;;;;;;;20.25;17.73;;;16.40;99.90;;;;;;4986351;28;20042;-77
2022/09/10 04:23:54;;;;;;;20.75;17.80;;;16.40;99.90;;;;;;4983898;28;20057;-77
2022/09/10 04:26:20;;;;;;;21.20;19.10;;;16.40;99.90;;;;;;4985272;28;20043;-77
2022/09/10 04:28:46;;;;;;;22.55;18.75;;;16.40;99.90;;;;;;4996068;28;20054;-77
2022/09/10 04:31:11;;;;;;;22.50;19.40;;;16.40;99.90;;;;;;4966345;28;20060;-77
2022/09/10 04:33:37;;;;;;;22.08;19.67;;;16.40;99.90;;;;;;4984380;28;20484;-77
2022/09/10 04:36:04;;;;;;;20.83;18.67;;;16.40;99.90;;;;;;4984545;28;20517;-77
2022/09/10 04:38:31;;;;;;;22.52;20.15;;;16.40;99.90;;;;;;4984518;28;20535;-77
2022/09/10 04:40:59;;;;;;;21.80;19.20;;;16.40;99.90;;;;;;4966139;28;20058;-77
2022/09/10 04:43:25;;;;;;;22.95;19.30;;;16.40;99.90;;;;;;4984684;28;20038;-77
2022/09/10 04:45:53;;;;;;;23.95;19.98;;;16.40;99.90;;;;;;4980311;28;20441;-76
2022/09/10 04:48:18;;;;;;;22.45;20.00;;;16.40;99.90;;;;;;4979232;28;20474;-77
2022/09/10 04:50:44;;;;;;;24.85;19.23;;;16.40;99.90;;;;;;4969527;28;20213;-77
2022/09/10 04:53:10;;;;;;;24.25;19.65;;;16.30;99.90;;;;;;4985280;28;20465;-76
2022/09/10 04:55:38;;;;;;;22.40;20.00;;;16.40;99.90;;;;;;4999996;28;20054;-77
2022/09/10 04:58:04;;;;;;;25.67;19.88;;;16.40;99.90;;;;;;4981380;28;20069;-77
2022/09/10 05:00:31;;;;;;;22.92;20.42;;;16.40;99.90;;;;;;4981002;28;20053;-77
2022/09/10 05:02:56;;;;;;;23.88;20.63;;;16.40;99.90;;;;;;4983851;28;20045;-77
2022/09/10 05:05:22;;;;;;;23.85;21.33;;;16.40;99.90;;;;;;4982810;28;20042;-77
2022/09/10 05:07:48;;;;;;;27.52;21.83;;;16.40;99.90;;;;;;4966200;28;20575;-77
2022/09/10 05:10:14;;;;;;;23.98;20.90;;;16.30;99.90;;;;;;4980933;28;20078;-77
2022/09/10 05:12:40;;;;;;;25.40;22.15;;;16.40;99.90;;;;;;4963966;28;20446;-78
2022/09/10 05:15:06;;;;;;;29.67;23.13;;;16.40;99.90;;;;;;4979147;28;20129;-79
2022/09/10 05:17:32;;;;;;;25.10;22.42;;;16.40;99.90;;;;;;4965808;28;20481;-77
2022/09/10 05:19:58;;;;;;;25.45;22.65;;;16.40;99.90;;;;;;4983639;28;20041;-76
2022/09/10 05:22:24;;;;;;;25.92;22.70;;;16.40;99.90;;;;;;4963702;28;20046;-75
2022/09/10 05:24:50;;;;;;;26.13;22.67;;;16.40;99.90;;;;;;5000079;28;20434;-75
2022/09/10 05:27:15;;;;;;;31.30;23.73;;;16.40;99.90;;;;;;5000006;28;20046;-75
2022/09/10 05:29:41;;;;;;;31.83;23.52;;;16.40;99.90;;;;;;4982703;28;20054;-76
2022/09/10 05:32:08;;;;;;;27.50;24.02;;;16.40;99.90;;;;;;4979370;28;20682;-75
2022/09/10 05:34:38;;;;;;;30.75;23.90;;;16.40;99.90;;;;;;4966785;28;20895;-75
2022/09/10 05:37:07;;;;;;;27.27;22.48;;;16.40;99.90;;;;;;4980727;28;20043;-75
2022/09/10 05:39:33;;;;;;;30.65;22.40;;;16.40;99.90;;;;;;4987005;28;20043;-75
2022/09/10 05:42:01;;;;;;;27.38;23.35;;;16.50;99.90;;;;;;4989330;28;20054;-75
2022/09/10 05:44:26;;;;;;;33.45;23.17;;;16.40;99.90;;;;;;4979929;28;20073;-74
2022/09/10 05:46:52;;;;;;;31.20;23.17;;;16.40;99.90;;;;;;4966205;28;20401;-74
2022/09/10 05:49:18;;;;;;;26.75;22.75;;;16.50;99.90;;;;;;4985464;28;20077;-75
2022/09/10 05:51:58;;;;;;;30.15;23.33;;;16.50;99.90;;;;;;4985780;28;20038;-74
2022/09/10 05:54:24;;;;;;;27.00;22.58;;;16.40;99.90;;;;;;4982088;28;20867;-74
2022/09/10 05:56:50;;;;;;;27.10;22.75;;;16.40;99.90;;;;;;4961067;28;20049;-75
2022/09/10 05:59:16;;;;;;;27.65;22.27;;;16.50;99.90;;;;;;4991718;28;20050;-74
2022/09/10 06:01:50;;;;;;;29.40;23.15;;;16.50;99.90;;;;;;4964139;28;20072;-76
2022/09/10 06:04:17;;;;;;;24.48;21.65;;;16.50;99.90;;;;;;4975380;28;20113;-75
2022/09/10 06:06:44;;;;;;;28.77;23.20;;;16.50;99.90;;;;;;4955981;28;20061;-75
2022/09/10 06:09:10;;;;;;;27.23;20.73;;;16.50;99.90;;;;;;4975722;28;20390;-76
2022/09/10 06:11:36;;;;;;;27.98;22.27;;;16.50;99.90;;;;;;4960593;28;20317;-75
2022/09/10 06:14:04;;;;;;;30.75;23.02;;;16.60;99.90;;;;;;4978848;28;20506;-75
2022/09/10 06:16:32;;;;;;;28.13;22.92;;;16.60;99.90;;;;;;4976597;28;20047;-75
2022/09/10 06:18:58;;;;;;;25.38;22.50;;;16.50;99.90;;;;;;4975196;28;20394;-75
2022/09/10 06:21:24;;;;;;;28.33;22.67;;;16.60;99.90;;;;;;4970829;28;20092;-75
2022/09/10 06:23:53;;;;;;;29.02;22.40;;;16.50;99.90;;;;;;4964456;28;20117;-75
2022/09/10 06:26:20;;;;;;;29.25;23.92;;;16.60;99.90;;;;;;4979613;28;20058;-75
2022/09/10 06:28:48;;;;;;;29.50;23.58;;;16.50;99.90;;;;;;4947979;28;20105;-74
2022/09/10 06:31:18;;;;;;;28.88;22.83;;;16.60;99.90;;;;;;4938802;28;20578;-75
2022/09/10 06:33:46;;;;;;;33.05;24.33;;;16.60;99.90;;;;;;4943395;28;20036;-75
2022/09/10 06:36:12;;;;;;;32.85;24.00;;;16.60;99.90;;;;;;4939613;28;21062;-77
2022/09/10 06:38:39;;;;;;;27.98;22.63;;;16.60;99.90;;;;;;4945965;28;20047;-76
2022/09/10 06:41:10;;;;;;;32.05;24.23;;;16.60;99.90;;;;;;4938849;28;20522;-76
2022/09/10 06:43:37;;;;;;;29.85;23.65;;;16.60;99.90;;;;;;4942244;29;20043;-79
2022/09/10 06:46:13;;;;;;;31.52;23.67;;;16.70;99.90;;;;;;4942070;28;20173;-84
2022/09/10 06:48:40;;;;;;;29.37;22.87;;;16.70;99.90;;;;;;4947080;28;20046;-85
2022/09/10 06:51:07;;;;;;;28.58;24.15;;;16.70;99.90;;;;;;4951766;28;20502;-84
2022/09/10 06:53:34;;;;;;;29.98;22.80;;;16.80;99.90;;;;;;4950542;28;20062;-85
2022/09/10 06:56:01;;;;;;;32.97;23.15;;;16.70;99.90;;;;;;4952682;28;20455;-86
2022/09/10 06:58:29;;;;;;;29.42;23.52;;;16.80;99.90;;;;;;4951606;28;20047;-84
2022/09/10 07:00:54;;;;;;;30.40;23.30;;;16.80;99.90;;;;;;4951428;28;20066;-86
2022/09/10 07:03:21;;;;;;;28.38;21.60;;;16.80;99.90;;;;;;4980366;28;20402;-84
2022/09/10 07:05:47;;;;;;;27.25;20.83;;;16.90;99.90;;;;;;4949255;28;20050;-85
2022/09/10 07:08:17;;;;;;;30.20;22.23;;;16.80;99.90;;;;;;4949643;28;20371;-83
2022/09/10 07:10:44;;;;;;;29.33;21.15;;;16.80;99.90;;;;;;4982311;28;20097;-83
2022/09/10 07:13:13;;;;;;;27.40;21.38;;;16.80;99.90;;;;;;4950511;28;20142;-85
2022/09/10 07:15:44;;;;;;;25.50;20.88;;;16.90;99.90;;;;;;4981357;28;20103;-84
2022/09/10 07:18:13;;;;;;;26.20;20.15;;;16.90;99.90;;;;;;4948532;28;20031;-84
2022/09/10 07:20:42;;;;;;;27.45;21.05;;;16.90;99.90;;;;;;4949851;28;20063;-84
2022/09/10 07:23:17;;;;;;;28.42;20.85;;;16.90;99.90;;;;;;4947770;28;20379;-85
2022/09/10 07:25:43;;;;;;;25.02;21.13;;;16.90;99.90;;;;;;4947276;28;20129;-82
2022/09/10 07:28:12;;;;;;;25.58;20.48;;;16.90;99.90;;;;;;4953182;28;20199;-84
2022/09/10 07:30:39;;;;;;;25.38;21.10;;;17.00;99.90;;;;;;4968263;28;20053;-81
2022/09/10 07:33:05;;;;;;;24.27;20.20;;;17.00;99.90;;;;;;4970674;28;20043;-83
2022/09/10 07:35:37;;;;;;;28.80;21.83;;;17.00;99.90;;;;;;4969166;28;20051;-81
2022/09/10 07:38:12;;;;;;;25.00;21.02;;;17.00;99.90;;;;;;4966789;28;20047;-84
2022/09/10 07:40:39;;;;;;;27.40;21.98;;;17.10;99.90;;;;;;4967606;28;20027;-82
2022/09/10 07:43:05;;;;;;;26.17;19.98;;;17.10;99.90;;;;;;4996983;28;20051;-85
2022/09/10 07:45:32;;;;;;;27.65;20.38;;;17.20;99.90;;;;;;4967524;28;20098;-85
2022/09/10 07:47:57;;;;;;;26.52;21.23;;;17.20;99.90;;;;;;4968534;28;20067;-85
2022/09/10 07:50:23;;;;;;;26.00;20.45;;;17.30;99.90;;;;;;4971841;28;20042;-83
2022/09/10 07:52:49;;;;;;;26.15;20.55;;;17.40;99.90;;;;;;4966902;28;20714;-86
2022/09/10 07:55:16;;;;;;;25.65;19.98;;;17.40;99.90;;;;;;4957041;28;20054;-84
2022/09/10 07:57:43;;;;;;;27.45;20.48;;;17.50;99.90;;;;;;4961907;28;20553;-85
2022/09/10 08:00:19;;;;;;;21.92;19.27;;;17.50;99.90;;;;;;4996178;28;20043;-84
2022/09/10 08:02:45;;;;;;;25.93;19.07;;;17.50;99.90;;;;;;4968661;28;20043;-84
2022/09/10 08:05:12;;;;;;;23.13;18.23;;;17.60;99.90;;;;;;4967389;28;20050;-84
2022/09/10 08:07:38;;;;;;;23.27;18.90;;;17.70;99.90;;;;;;4967541;28;20087;-84
2022/09/10 08:10:08;;;;;;;23.80;19.35;;;17.70;99.90;;;;;;4965400;28;20061;-84
2022/09/10 08:12:38;;;;;;;22.08;18.95;;;17.70;99.90;;;;;;4969617;28;20394;-83
2022/09/10 08:15:06;;;;;;;24.33;18.52;;;17.80;99.90;;;;;;4988170;28;20074;-87
2022/09/10 08:17:33;;;;;;;27.23;20.13;;;17.80;99.90;;;;;;4991398;28;20094;-85
2022/09/10 08:20:00;;;;;;;25.87;19.87;;;17.80;99.90;;;;;;5020264;28;20046;-85
2022/09/10 08:22:26;;;;;;;20.83;18.50;;;17.80;99.90;;;;;;4981522;28;20303;-85
2022/09/10 08:24:52;;;;;;;21.58;18.88;;;17.90;99.90;;;;;;4987135;28;20067;-84
2022/09/10 08:27:18;;;;;;;20.90;17.90;;;17.90;99.90;;;;;;4977572;28;20533;-85
2022/09/10 08:29:43;;;;;;;21.10;18.40;;;17.90;99.90;;;;;;4985893;28;20305;-85
2022/09/10 08:32:12;;;;;;;20.05;17.88;;;17.90;99.90;;;;;;4988256;28;20031;-81
2022/09/10 08:34:39;;;;;;;21.40;19.05;;;18.00;99.90;;;;;;4986368;28;20050;-81
2022/09/10 08:37:05;;;;;;;22.88;18.85;;;18.00;99.90;;;;;;4969175;28;20614;-81
2022/09/10 08:39:31;;;;;;;22.60;19.48;;;17.90;99.90;;;;;;4972091;28;20046;-80
2022/09/10 08:42:15;;;;;;;23.77;19.15;;;17.90;99.90;;;;;;4991569;28;20050;-81
2022/09/10 08:44:49;;;;;;;23.58;19.95;;;18.00;99.90;;;;;;4987717;28;20049;-80
2022/09/10 08:47:37;;;;;;;19.10;17.08;;;18.00;99.90;;;;;;4987108;28;20054;-81
2022/09/10 08:50:12;;;;;;;18.23;15.50;;;18.00;99.90;;;;;;4988275;28;20133;-81
2022/09/10 08:52:47;;;;;;;17.52;15.73;;;18.10;99.90;;;;;;4970017;28;20133;-81
2022/09/10 08:55:16;;;;;;;19.35;17.42;;;18.20;99.90;;;;;;4956274;28;20047;-81
2022/09/10 08:57:56;;;;;;;18.38;16.48;;;18.30;99.90;;;;;;4970509;28;20054;-81
2022/09/10 09:00:24;;;;;;;18.63;15.90;;;18.30;99.90;;;;;;4987994;28;20034;-81
2022/09/10 09:03:05;;;;;;;20.33;16.80;;;18.40;99.90;;;;;;4989011;28;20054;-81
2022/09/10 09:05:49;;;;;;;18.92;16.45;;;18.40;99.90;;;;;;4999374;28;20039;-81
2022/09/10 09:08:20;;;;;;;18.63;15.80;;;18.40;99.90;;;;;;4977897;28;20490;-81
2022/09/10 09:11:13;;;;;;;16.95;15.10;;;18.50;99.90;;;;;;4989012;28;20048;-81
2022/09/10 09:14:11;;;;;;;17.08;15.20;;;18.50;99.90;;;;;;5003542;28;20101;-81
2022/09/10 09:16:52;;;;;;;18.50;16.42;;;18.60;99.90;;;;;;4974731;28;20057;-84
2022/09/10 09:19:33;;;;;;;17.17;15.23;;;18.60;99.90;;;;;;4986080;28;20066;-84
2022/09/10 09:22:19;;;;;;;15.52;13.98;;;18.70;99.90;;;;;;5000752;28;20058;-83
2022/09/10 09:24:56;;;;;;;16.73;13.55;;;18.70;99.90;;;;;;4987126;28;20726;-83
2022/09/10 09:27:26;;;;;;;15.75;14.00;;;18.70;99.90;;;;;;4999647;28;20116;-83
2022/09/10 09:30:03;;;;;;;15.52;13.73;;;18.80;99.90;;;;;;4987049;28;20044;-83
2022/09/10 09:32:31;;;;;;;;;;;18.80;99.90;;;;;;4986552;28;20115;-83
2022/09/10 09:35:13;;;;;;;14.13;12.60;;;18.80;99.90;;;;;;4987486;28;19948;-83
2022/09/10 09:37:46;;;;;;;14.73;12.80;;;18.90;99.90;;;;;;5000406;28;20089;-83
2022/09/10 09:40:32;;;;;;;13.45;12.05;;;19.00;99.90;;;;;;5001507;28;20046;-83
2022/09/10 09:43:08;;;;;;;13.35;11.98;;;19.00;99.90;;;;;;4987162;28;20520;-83
2022/09/10 09:45:41;;;;;;;14.95;11.27;;;19.00;99.90;;;;;;4987945;28;20588;-82
2022/09/10 09:48:11;;;;;;;14.50;11.63;;;19.10;99.90;;;;;;4983773;28;20046;-83
2022/09/10 09:50:40;;;;;;;14.93;11.50;;;19.10;99.90;;;;;;4986089;28;20046;-82
2022/09/10 09:53:08;;;;;;;12.38;11.02;;;19.20;99.90;;;;;;4985877;28;20054;-82
2022/09/10 09:55:42;;;;;;;12.25;10.95;;;19.30;99.90;;;;;;4981812;28;20043;-82
2022/09/10 09:58:20;;;;;;;12.07;9.93;;;19.40;99.90;;;;;;4982576;28;20046;-87
2022/09/10 10:00:48;;;;;;;11.40;9.45;;;19.40;99.90;;;;;;4984789;28;20042;-86
2022/09/10 10:03:21;;;;;;;13.55;10.77;;;19.40;99.90;;;;;;5000784;28;20089;-83
2022/09/10 10:05:47;;;;;;;12.90;10.48;;;19.40;99.90;;;;;;4970445;28;20076;-83
2022/09/10 10:08:31;;;;;;;12.47;9.23;;;19.40;99.90;;;;;;5003822;28;20046;-85
2022/09/10 10:10:57;;;;;;;12.15;10.35;;;19.30;99.90;;;;;;4969773;28;20821;-86
2022/09/10 10:13:23;;;;;;;14.37;10.90;;;19.30;99.90;;;;;;4990484;28;20034;-83
2022/09/10 10:15:49;;;;;;;12.07;10.63;;;19.30;99.90;;;;;;5002499;28;20074;-77
2022/09/10 10:18:20;;;;;;;12.82;11.18;;;19.30;99.90;;;;;;4989279;28;20070;-81
2022/09/10 10:20:48;;;;;;;11.77;9.98;;;19.20;99.90;;;;;;4991285;28;20046;-84
2022/09/10 10:23:36;;;;;;;17.05;10.88;;;19.20;99.90;;;;;;4987619;28;20129;-84
2022/09/10 10:26:27;;;;;;;12.85;10.70;;;19.20;99.90;;;;;;4971411;28;20046;-84
2022/09/10 10:29:00;;;;;;;14.10;11.10;;;19.20;99.90;;;;;;4971977;28;20760;-84
2022/09/10 10:31:43;;;;;;;13.32;11.85;;;19.20;99.90;;;;;;4989749;28;20061;-81
2022/09/10 10:34:32;;;;;;;17.10;11.70;;;19.20;99.90;;;;;;4991076;28;20046;-84
2022/09/10 10:37:11;;;;;;;14.13;11.50;;;19.20;99.90;;;;;;4973108;28;20401;-83
2022/09/10 10:40:05;;;;;;;14.00;10.20;;;19.30;99.90;;;;;;4988741;28;20038;-82
2022/09/10 10:42:34;;;;;;;12.35;10.27;;;19.40;99.90;;;;;;4983100;28;20513;-86
2022/09/10 10:45:27;;;;;;;12.15;10.25;;;19.50;99.90;;;;;;4986108;28;20137;-86
2022/09/10 10:48:22;;;;;;;12.65;10.40;;;19.70;99.90;;;;;;4961473;28;20104;-80
2022/09/10 10:51:08;;;;;;;12.67;9.90;;;19.70;99.90;;;;;;4985740;28;20503;-84
2022/09/10 10:54:13;;;;;;;12.40;9.98;;;19.80;99.90;;;;;;4989559;28;20055;-81
2022/09/10 10:57:02;;;;;;;13.18;9.68;;;19.80;99.90;;;;;;4988735;28;20072;-76
2022/09/10 11:00:02;;;;;;;12.63;10.35;;;19.80;99.90;;;;;;4978024;28;20065;-77
2022/09/10 11:03:05;;;;;;;13.70;9.82;;;19.90;99.90;;;;;;4986808;28;20057;-78
2022/09/10 11:05:38;;;;;;;12.05;9.20;;;19.90;99.90;;;;;;4983756;28;20070;-78
2022/09/10 11:08:18;;;;;;;14.88;11.40;;;20.00;99.90;;;;;;4986412;28;20375;-77
2022/09/10 11:11:23;;;;;;;11.98;9.48;;;20.10;99.90;;;;;;4983069;28;20043;-78
2022/09/10 11:13:58;;;;;;;9.77;8.77;;;20.10;99.90;;;;;;4965311;28;20061;-79
2022/09/10 11:16:37;;;;;;;11.40;9.40;;;20.10;99.90;;;;;;4970319;28;20055;-79
2022/09/10 11:19:11;;;;;;;10.05;9.02;;;20.20;99.90;;;;;;4980101;28;20101;-85
2022/09/10 11:21:51;;;;;;;11.52;9.27;;;20.20;99.90;;;;;;4968864;28;20042;-83
2022/09/10 11:24:21;;;;;;;10.93;9.55;;;20.30;99.90;;;;;;5003217;28;20042;-81
2022/09/10 11:27:10;;;;;;;11.95;9.30;;;20.40;99.90;;;;;;4989900;28;20048;-82
2022/09/10 11:29:42;;;;;;;11.27;9.40;;;20.40;99.90;;;;;;4979309;28;20078;-79
2022/09/10 11:32:33;;;;;;;12.15;9.25;;;20.50;99.90;;;;;;4987126;28;20457;-80
2022/09/10 11:35:13;;;;;;;12.50;9.13;;;20.60;99.90;;;;;;4978854;28;20801;-81
2022/09/10 11:37:43;;;;;;;15.63;8.95;;;20.70;99.90;;;;;;4986850;28;20088;-79
2022/09/10 11:40:23;;;;;;;11.40;8.05;;;20.70;99.90;;;;;;4968425;28;20054;-79
2022/09/10 11:42:55;;;;;;;11.02;7.95;;;20.80;99.90;;;;;;4989262;28;20137;-81
2022/09/10 11:45:38;;;;;;;10.30;7.45;;;20.80;99.90;;;;;;4970568;28;20057;-80
2022/09/10 11:48:16;;;;;;;7.80;6.72;;;20.80;99.90;;;;;;4972387;28;20078;-83
2022/09/10 11:50:57;;;;;;;9.73;7.00;;;20.70;99.90;;;;;;4967041;28;20379;-86
2022/09/10 11:53:24;;;;;;;6.93;5.28;;;20.70;99.90;;;;;;4975983;28;20050;-83
2022/09/10 11:56:07;;;;;;;8.00;6.03;;;20.60;99.90;;;;;;4972130;28;20410;-84
2022/09/10 11:58:53;;;;;;;6.68;5.97;;;20.60;99.90;;;;;;4970171;28;20773;-82
2022/09/10 12:01:40;;;;;;;7.35;5.28;;;20.70;99.90;;;;;;5000318;28;20125;-82
2022/09/10 12:04:23;;;;;;;8.73;5.80;;;20.70;99.90;;;;;;4986957;28;20082;-80
2022/09/10 12:07:13;;;;;;;9.18;5.03;;;20.90;99.90;;;;;;5003502;28;20050;-81
2022/09/10 12:10:08;;;;;;;7.18;5.75;;;21.00;99.90;;;;;;4970964;28;20101;-83
2022/09/10 12:12:41;;;;;;;8.90;5.43;;;21.10;99.90;;;;;;4983044;28;20061;-77
2022/09/10 12:15:21;;;;;;;6.70;5.05;;;21.20;99.90;;;;;;4985515;28;20678;-78
2022/09/10 12:17:54;;;;;;;4.88;4.35;;;21.20;99.90;;;;;;4987095;28;20189;-78
2022/09/10 12:20:34;;;;;;;6.18;4.40;;;21.30;99.90;;;;;;4984707;28;20049;-78
2022/09/10 12:23:00;;;;;;;6.88;4.30;;;21.40;99.90;;;;;;4970902;28;20093;-77
2022/09/10 12:25:30;;;;;;;5.88;4.40;;;21.50;99.90;;;;;;4990052;28;20046;-78
2022/09/10 12:28:02;;;;;;;6.78;4.90;;;21.50;99.90;;;;;;4988087;28;20050;-78
2022/09/10 12:30:32;;;;;;;6.20;4.50;;;21.50;99.90;;;;;;4988742;28;20055;-78
2022/09/10 12:33:00;;;;;;;7.13;5.32;;;21.50;99.90;;;;;;4982817;28;20054;-86
2022/09/10 12:35:29;;;;;;;8.93;4.82;;;21.60;99.90;;;;;;4983834;28;20216;-85
2022/09/10 12:38:32;;;;;;;6.03;4.63;;;21.80;99.90;;;;;;4969941;28;20406;-81
2022/09/10 12:40:59;;;;;;;7.40;4.72;;;21.90;99.90;;;;;;4987603;28;20105;-81
2022/09/10 12:43:40;;;;;;;5.90;4.47;;;21.90;99.90;;;;;;4965606;28;20046;-84
2022/09/10 12:46:06;;;;;;;6.63;4.07;;;21.90;99.90;;;;;;4968834;28;20082;-82
2022/09/10 12:48:34;;;;;;;6.53;4.20;;;21.80;99.90;;;;;;4960974;28;20509;-82
2022/09/10 12:51:19;;;;;;;5.28;4.63;;;21.80;99.90;;;;;;4969401;28;20046;-81
2022/09/10 12:53:54;;;;;;;8.07;5.53;;;21.80;99.90;;;;;;4983328;28;20050;-82